createdAt,value
2019-03-15T00:03:03.460Z,22.7
2019-03-15T00:06:09.486Z,22.7
2019-03-15T00:09:15.484Z,22.7
2019-03-15T00:12:21.590Z,22.7
2019-03-15T00:15:28.460Z,22.7
2019-03-15T00:18:34.545Z,22.7
2019-03-15T00:21:40.565Z,22.7
2019-03-15T00:24:46.608Z,22.7
2019-03-15T00:27:52.540Z,22.7
2019-03-15T00:30:58.567Z,22.7
2019-03-15T00:34:04.532Z,22.6
2019-03-15T00:37:10.531Z,22.7
2019-03-15T00:40:16.815Z,22.6
2019-03-15T00:43:23.073Z,22.6
2019-03-15T00:46:28.991Z,22.6
2019-03-15T00:49:34.961Z,22.6
2019-03-15T00:52:40.912Z,22.5
2019-03-15T00:55:46.932Z,22.5
2019-03-15T00:58:52.801Z,22.5
2019-03-15T01:01:58.816Z,22.5
2019-03-15T01:05:04.912Z,22.5
2019-03-15T01:08:11.455Z,22.4
2019-03-15T01:11:17.707Z,22.3
2019-03-15T01:14:23.669Z,22.3
2019-03-15T01:17:29.779Z,22.3
2019-03-15T01:20:35.634Z,22.2
2019-03-15T01:23:41.694Z,22.2
2019-03-15T01:26:47.639Z,22.2
2019-03-15T01:29:53.654Z,22.3
2019-03-15T01:32:59.733Z,22.2
2019-03-15T01:36:05.640Z,22.2
2019-03-15T01:39:11.622Z,22.2
2019-03-15T01:42:17.561Z,22.2
2019-03-15T01:45:24.655Z,22.2
2019-03-15T01:48:30.702Z,22.2
2019-03-15T01:51:36.567Z,22.2
2019-03-15T01:54:43.438Z,22.2
2019-03-15T01:57:49.439Z,22.2
2019-03-15T02:00:55.400Z,22.2
2019-03-15T02:04:01.410Z,22.2
2019-03-15T02:07:08.913Z,22.2
2019-03-15T02:10:15.236Z,22.2
2019-03-15T02:13:24.472Z,22.2
2019-03-15T02:16:30.451Z,22.2
2019-03-15T02:19:37.486Z,22.2
2019-03-15T02:22:43.491Z,22.2
2019-03-15T02:25:50.425Z,22.2
2019-03-15T02:28:57.248Z,22.2
2019-03-15T02:32:03.225Z,22.2
2019-03-15T02:35:09.097Z,22.2
2019-03-15T02:38:15.039Z,22.2
2019-03-15T02:41:20.914Z,22.2
2019-03-15T02:44:27.006Z,22.2
2019-03-15T02:47:32.968Z,22.2
2019-03-15T02:50:38.992Z,22.2
2019-03-15T02:53:45.134Z,22.2
2019-03-15T02:56:51.095Z,22.2
2019-03-15T02:59:56.976Z,22.2
2019-03-15T03:03:03.291Z,22.2
2019-03-15T03:06:09.285Z,22.2
2019-03-15T03:09:15.242Z,22.2
2019-03-15T03:12:21.322Z,22.2
2019-03-15T03:15:27.295Z,22.2
2019-03-15T03:18:34.516Z,22.2
2019-03-15T03:21:41.627Z,22.2
2019-03-15T03:24:48.285Z,22.2
2019-03-15T03:27:55.773Z,22.2
2019-03-15T03:31:03.818Z,22.2
2019-03-15T03:34:11.182Z,22.2
2019-03-15T03:37:18.929Z,22.2
2019-03-15T03:40:25.413Z,22.2
2019-03-15T03:43:33.181Z,22.2
2019-03-15T03:46:39.135Z,22.2
2019-03-15T03:49:45.111Z,22.2
2019-03-15T03:52:51.101Z,22.2
2019-03-15T03:55:57.164Z,22.3
2019-03-15T03:59:03.279Z,22.4
2019-03-15T04:02:09.387Z,22.4
2019-03-15T04:05:15.531Z,22.5
2019-03-15T04:08:24.113Z,22.5
2019-03-15T04:11:30.023Z,22.5
2019-03-15T04:14:36.042Z,22.6
2019-03-15T04:17:42.133Z,22.7
2019-03-15T04:20:48.315Z,22.8
2019-03-15T04:23:54.409Z,22.7
2019-03-15T04:27:00.437Z,22.8
2019-03-15T04:30:08.608Z,22.9
2019-03-15T04:33:14.939Z,22.9
2019-03-15T04:36:20.920Z,23
2019-03-15T04:39:27.155Z,23
2019-03-15T04:42:33.194Z,23
2019-03-15T04:45:39.293Z,23.1
2019-03-15T04:48:45.275Z,23.1
2019-03-15T04:51:51.328Z,23.1
2019-03-15T04:54:57.346Z,23.2
2019-03-15T04:58:03.498Z,23.2
2019-03-15T05:01:09.523Z,23.3
2019-03-15T05:04:15.427Z,23.3
2019-03-15T05:07:21.492Z,23.4
2019-03-15T05:10:27.540Z,23.4
2019-03-15T05:13:33.410Z,23.4
2019-03-15T05:16:42.115Z,23.5
2019-03-15T05:19:48.152Z,23.5
2019-03-15T05:22:54.056Z,23.5
2019-03-15T05:25:59.983Z,23.6
2019-03-15T05:29:06.035Z,23.7
2019-03-15T05:32:11.972Z,23.7
2019-03-15T05:35:17.967Z,23.7
2019-03-15T05:38:23.964Z,23.8
2019-03-15T05:41:29.905Z,23.8
2019-03-15T05:44:35.908Z,23.9
2019-03-15T05:47:41.927Z,23.9
2019-03-15T05:50:47.787Z,24
2019-03-15T05:53:53.716Z,24
2019-03-15T05:56:59.609Z,24.1
2019-03-15T06:00:05.612Z,24.2
2019-03-15T06:03:12.569Z,24.2
2019-03-15T06:06:18.669Z,24.3
2019-03-15T06:09:24.621Z,24.4
2019-03-15T06:12:30.566Z,24.5
2019-03-15T06:15:36.589Z,24.6
2019-03-15T06:18:45.157Z,24.6
2019-03-15T06:21:51.067Z,24.7
2019-03-15T06:24:56.996Z,24.7
2019-03-15T06:28:02.906Z,24.8
2019-03-15T06:31:09.104Z,24.9
2019-03-15T06:34:15.204Z,25
2019-03-15T06:37:23.638Z,25.1
2019-03-15T06:40:29.573Z,25.1
2019-03-15T06:43:36.648Z,25.2
2019-03-15T06:46:42.573Z,25.2
2019-03-15T06:49:51.226Z,25.3
2019-03-15T06:52:57.292Z,25.3
2019-03-15T06:56:03.190Z,25.4
2019-03-15T06:59:09.221Z,25.4
2019-03-15T07:02:15.122Z,25.5
2019-03-15T07:05:21.996Z,25.5
2019-03-15T07:08:28.324Z,25.6
2019-03-15T07:11:34.323Z,25.7
2019-03-15T07:14:40.653Z,25.7
2019-03-15T07:17:47.886Z,25.8
2019-03-15T07:20:56.681Z,25.8
2019-03-15T07:24:02.663Z,25.9
2019-03-15T07:27:13.060Z,26
2019-03-15T07:30:19.481Z,26
2019-03-15T07:33:25.473Z,26.1
2019-03-15T07:36:31.655Z,26.1
2019-03-15T07:39:41.207Z,26.1
2019-03-15T07:42:47.301Z,26.2
2019-03-15T07:45:54.316Z,26.2
2019-03-15T07:49:00.280Z,26.2
2019-03-15T07:52:08.050Z,26.3
2019-03-15T07:55:14.194Z,26.3
2019-03-15T07:58:20.151Z,26.2
2019-03-15T08:01:26.165Z,26.3
2019-03-15T08:04:32.162Z,26.3
2019-03-15T08:07:45.007Z,26.4
2019-03-15T08:10:54.798Z,26.4
2019-03-15T08:14:01.097Z,26.4
2019-03-15T08:17:07.161Z,26.4
2019-03-15T08:20:13.201Z,26.5
2019-03-15T08:23:19.196Z,26.5
2019-03-15T08:26:29.860Z,26.5
2019-03-15T08:29:36.298Z,26.5
2019-03-15T08:32:43.736Z,26.5
2019-03-15T08:35:50.121Z,26.5
2019-03-15T08:38:56.157Z,26.5
2019-03-15T08:42:02.203Z,26.5
2019-03-15T08:45:08.563Z,26.5
2019-03-15T08:48:14.601Z,26.5
2019-03-15T08:51:20.664Z,26.5
2019-03-15T08:54:26.825Z,26.5
2019-03-15T08:57:32.897Z,26.5
2019-03-15T09:00:38.857Z,26.5
2019-03-15T09:03:45.709Z,26.4
2019-03-15T09:06:51.585Z,26.5
2019-03-15T09:09:57.529Z,26.4
2019-03-15T09:13:07.005Z,26.4
2019-03-15T09:16:13.085Z,26.5
2019-03-15T09:19:22.614Z,26.4
2019-03-15T09:22:28.735Z,26.4
2019-03-15T09:25:34.772Z,26.4
2019-03-15T09:28:40.754Z,26.5
2019-03-15T09:31:48.244Z,26.4
2019-03-15T09:35:12.356Z,26.3
2019-03-15T09:38:18.410Z,26.4
2019-03-15T09:41:31.316Z,26.4
2019-03-15T09:44:45.243Z,26.4
2019-03-15T09:47:51.274Z,26.3
2019-03-15T09:50:57.108Z,26.3
2019-03-15T09:54:03.117Z,26.3
2019-03-15T09:57:09.993Z,26.3
2019-03-15T10:00:16.167Z,26.2
2019-03-15T10:03:22.786Z,26.2
2019-03-15T10:06:28.908Z,26.2
2019-03-15T10:09:45.072Z,26.1
2019-03-15T10:13:04.588Z,26.1
2019-03-15T10:16:11.934Z,26
2019-03-15T10:19:17.980Z,26.1
2019-03-15T10:22:24.010Z,26
2019-03-15T10:25:29.898Z,26
2019-03-15T10:28:54.741Z,26
2019-03-15T10:32:20.286Z,26
2019-03-15T10:35:26.210Z,26
2019-03-15T10:38:32.225Z,26
2019-03-15T10:41:38.489Z,26
2019-03-15T10:44:44.519Z,25.9
2019-03-15T10:47:50.507Z,26
2019-03-15T10:50:56.425Z,26
2019-03-15T10:54:03.313Z,26.1
2019-03-15T10:57:09.358Z,26
2019-03-15T11:00:15.331Z,26.1
2019-03-15T11:03:21.647Z,26.1
2019-03-15T11:09:31.868Z,26
2019-03-15T11:12:37.987Z,25.9
2019-03-15T11:15:44.077Z,25.9
2019-03-15T11:18:50.070Z,25.9
2019-03-15T11:21:55.981Z,25.8
2019-03-15T11:25:01.931Z,25.8
2019-03-15T11:28:08.053Z,25.9
2019-03-15T11:31:13.944Z,25.9
2019-03-15T11:34:20.011Z,25.9
2019-03-15T11:37:26.271Z,25.9
2019-03-15T11:40:32.529Z,25.7
2019-03-15T11:43:41.988Z,25.6
2019-03-15T11:46:48.981Z,25.8
2019-03-15T11:49:55.498Z,25.8
2019-03-15T11:53:01.609Z,25.8
2019-03-15T11:56:07.655Z,25.8
2019-03-15T11:59:27.151Z,25.9
2019-03-15T12:02:37.436Z,25.9
2019-03-15T12:05:43.417Z,25.9
2019-03-15T12:08:49.429Z,25.9
2019-03-15T12:11:55.616Z,25.9
2019-03-15T12:15:01.552Z,25.9
2019-03-15T12:18:08.471Z,26
2019-03-15T12:21:14.862Z,26
2019-03-15T12:24:20.778Z,26
2019-03-15T12:27:26.824Z,26
2019-03-15T12:30:32.908Z,26
2019-03-15T12:33:39.042Z,25.9
2019-03-15T12:36:45.078Z,25.9
2019-03-15T12:39:51.048Z,25.9
2019-03-15T12:42:56.978Z,25.9
2019-03-15T12:46:03.086Z,25.9
2019-03-15T12:49:09.089Z,25.9
2019-03-15T12:52:15.150Z,25.9
2019-03-15T12:55:24.102Z,25.9
2019-03-15T12:58:30.054Z,25.9
2019-03-15T13:01:36.039Z,25.9
2019-03-15T13:04:41.932Z,25.9
2019-03-15T13:07:47.929Z,25.9
2019-03-15T13:10:54.036Z,25.9
2019-03-15T13:14:00.172Z,25.9
2019-03-15T13:17:07.268Z,25.8
2019-03-15T13:20:13.264Z,25.8
2019-03-15T13:23:19.314Z,25.9
2019-03-15T13:26:28.629Z,25.9
2019-03-15T13:29:34.999Z,25.9
2019-03-15T13:32:41.047Z,25.9
2019-03-15T13:35:47.052Z,25.9
2019-03-15T13:38:53.314Z,25.9
2019-03-15T13:41:59.369Z,26
2019-03-15T13:45:05.400Z,25.9
2019-03-15T13:48:11.348Z,25.9
2019-03-15T13:51:17.461Z,26
2019-03-15T13:54:26.909Z,26
2019-03-15T13:57:32.896Z,26
2019-03-15T14:00:38.915Z,25.9
2019-03-15T14:03:47.686Z,26
2019-03-15T14:06:53.634Z,26
2019-03-15T14:09:59.662Z,26
2019-03-15T14:13:11.773Z,25.8
2019-03-15T14:16:18.064Z,25.8
2019-03-15T14:19:24.009Z,25.9
2019-03-15T14:22:30.052Z,25.9
2019-03-15T14:25:36.023Z,25.9
2019-03-15T14:28:42.050Z,25.9
2019-03-15T14:31:47.957Z,25.9
2019-03-15T14:34:53.882Z,25.9
2019-03-15T14:37:59.990Z,25.9
2019-03-15T14:41:07.633Z,25.9
2019-03-15T14:44:18.103Z,25.9
2019-03-15T14:47:25.196Z,25.9
2019-03-15T14:50:32.194Z,25.9
2019-03-15T14:53:38.138Z,25.9
2019-03-15T14:56:44.214Z,25.8
2019-03-15T14:59:51.227Z,25.8
2019-03-15T15:02:57.390Z,25.9
2019-03-15T15:06:03.385Z,25.8
2019-03-15T15:09:09.367Z,25.8
2019-03-15T15:12:15.321Z,25.8
2019-03-15T15:15:22.493Z,25.7
2019-03-15T15:18:28.389Z,25.7
2019-03-15T15:21:34.431Z,25.7
2019-03-15T15:24:40.425Z,25.7
2019-03-15T15:27:46.434Z,25.8
2019-03-15T15:31:06.347Z,25.7
2019-03-15T15:34:12.424Z,25.8
2019-03-15T15:37:18.485Z,25.7
2019-03-15T15:40:24.493Z,25.7
2019-03-15T15:43:30.572Z,25.7
2019-03-15T15:46:36.878Z,25.7
2019-03-15T15:49:42.875Z,25.6
2019-03-15T15:52:48.886Z,25.7
2019-03-15T15:55:54.947Z,25.7
2019-03-15T15:59:03.054Z,25.6
2019-03-15T16:02:09.297Z,25.7
2019-03-15T16:05:15.246Z,25.7
2019-03-15T16:08:21.307Z,25.6
2019-03-15T16:11:27.248Z,25.6
2019-03-15T16:14:33.154Z,25.6
2019-03-15T16:17:39.195Z,25.6
2019-03-15T16:20:48.569Z,25.6
2019-03-15T16:23:54.650Z,25.6
2019-03-15T16:27:00.767Z,25.6
2019-03-15T16:30:06.647Z,25.6
2019-03-15T16:33:12.728Z,25.6
2019-03-15T16:36:18.808Z,25.6
2019-03-15T16:39:24.822Z,25.6
2019-03-15T16:42:30.806Z,25.5
2019-03-15T16:45:36.792Z,25.5
2019-03-15T16:48:42.943Z,25.5
2019-03-15T16:51:49.070Z,25.5
2019-03-15T16:54:55.078Z,25.5
2019-03-15T16:58:01.226Z,25.5
2019-03-15T17:01:07.264Z,25.5
2019-03-15T17:04:13.215Z,25.5
2019-03-15T17:07:19.187Z,25.4
2019-03-15T17:10:25.281Z,25.4
2019-03-15T17:13:31.213Z,25.4
2019-03-15T17:16:37.155Z,25.4
2019-03-15T17:19:43.076Z,25.4
2019-03-15T17:22:49.131Z,25.4
2019-03-15T17:25:55.029Z,25.3
2019-03-15T17:29:01.142Z,25.3
2019-03-15T17:32:07.113Z,25.3
2019-03-15T17:35:13.129Z,25.3
2019-03-15T17:38:19.501Z,25.3
2019-03-15T17:41:25.580Z,25.3
2019-03-15T17:44:31.505Z,25.3
2019-03-15T17:47:37.453Z,25.2
2019-03-15T17:50:43.416Z,25.2
2019-03-15T17:53:51.894Z,25.2
2019-03-15T17:56:57.853Z,25.2
2019-03-15T18:00:03.925Z,25.1
2019-03-15T18:03:20.464Z,25.1
2019-03-15T18:06:27.402Z,25
2019-03-15T18:09:33.342Z,25
2019-03-15T18:12:39.299Z,25
2019-03-15T18:15:45.288Z,24.9
2019-03-15T18:18:51.257Z,24.9
2019-03-15T18:21:57.335Z,24.8
2019-03-15T18:25:03.215Z,24.8
2019-03-15T18:28:09.319Z,24.7
2019-03-15T18:31:15.342Z,24.7
2019-03-15T18:34:21.347Z,24.7
2019-03-15T18:37:27.342Z,24.6
2019-03-15T18:40:33.378Z,24.6
2019-03-15T18:43:39.498Z,24.5
2019-03-15T18:46:45.517Z,24.5
2019-03-15T18:49:51.480Z,24.4
2019-03-15T18:52:57.395Z,24.4
2019-03-15T18:56:03.572Z,24.4
2019-03-15T18:59:11.942Z,24.3
2019-03-15T19:02:18.469Z,24.3
2019-03-15T19:05:24.432Z,24.2
2019-03-15T19:08:30.574Z,24.2
2019-03-15T19:11:36.713Z,24.2
2019-03-15T19:14:42.697Z,24.1
2019-03-15T19:17:48.688Z,24.1
2019-03-15T19:20:54.822Z,24
2019-03-15T19:24:00.901Z,24
2019-03-15T19:27:07.134Z,24
2019-03-15T19:30:13.269Z,24
2019-03-15T19:33:19.256Z,23.9
2019-03-15T19:36:25.384Z,23.9
2019-03-15T19:39:31.481Z,23.9
2019-03-15T19:42:37.528Z,23.8
2019-03-15T19:45:47.813Z,23.8
2019-03-15T19:48:53.752Z,23.8
2019-03-15T19:51:59.693Z,23.8
2019-03-15T19:55:05.724Z,23.7
2019-03-15T19:58:11.705Z,23.7
2019-03-15T20:01:20.562Z,23.7
2019-03-15T20:04:30.015Z,23.7
2019-03-15T20:07:36.001Z,23.6
2019-03-15T20:10:43.292Z,23.6
2019-03-15T20:13:49.329Z,23.6
2019-03-15T20:16:55.349Z,23.6
2019-03-15T20:20:01.312Z,23.6
2019-03-15T20:23:07.337Z,23.5
2019-03-15T20:26:13.340Z,23.5
2019-03-15T20:29:19.372Z,23.5
2019-03-15T20:32:25.499Z,23.5
2019-03-15T20:35:31.618Z,23.4
2019-03-15T20:38:37.495Z,23.4
2019-03-15T20:41:43.426Z,23.4
2019-03-15T20:44:51.843Z,23.4
2019-03-15T20:47:57.892Z,23.3
2019-03-15T20:51:03.808Z,23.3
2019-03-15T20:54:09.757Z,23.3
2019-03-15T20:57:15.635Z,23.3
2019-03-15T21:00:34.262Z,23.3
2019-03-15T21:03:55.130Z,23.3
2019-03-15T21:07:01.990Z,23.3
2019-03-15T21:10:08.047Z,23.2
2019-03-15T21:13:14.114Z,23.2
2019-03-15T21:16:20.101Z,23.2
2019-03-15T21:19:28.634Z,23.2
2019-03-15T21:22:34.731Z,23.1
2019-03-15T21:25:40.994Z,23.1
2019-03-15T21:28:46.930Z,23.1
2019-03-15T21:31:53.011Z,23.1
2019-03-15T21:34:59.366Z,23.1
2019-03-15T21:38:05.462Z,23.1
2019-03-15T21:41:11.402Z,23.1
2019-03-15T21:44:17.554Z,23
2019-03-15T21:47:23.565Z,23
2019-03-15T21:50:29.539Z,23
2019-03-15T21:53:35.498Z,23
2019-03-15T21:56:41.529Z,23
2019-03-15T21:59:47.552Z,23
2019-03-15T22:02:53.497Z,23
2019-03-15T22:05:59.500Z,23
2019-03-15T22:09:05.634Z,23
2019-03-15T22:12:11.724Z,22.9
2019-03-15T22:15:17.592Z,22.9
2019-03-15T22:18:23.597Z,22.9
2019-03-15T22:21:29.610Z,22.9
2019-03-15T22:24:35.651Z,22.9
2019-03-15T22:27:41.781Z,22.8
2019-03-15T22:30:51.358Z,22.8
2019-03-15T22:33:57.327Z,22.8
2019-03-15T22:37:03.416Z,22.8
2019-03-15T22:40:09.596Z,22.8
2019-03-15T22:43:15.612Z,22.7
2019-03-15T22:46:21.467Z,22.8
2019-03-15T22:49:27.490Z,22.7
2019-03-15T22:52:33.491Z,22.7
2019-03-15T22:55:39.694Z,22.7
2019-03-15T22:58:45.625Z,22.6
2019-03-15T23:01:51.725Z,22.6
2019-03-15T23:04:57.751Z,22.6
2019-03-15T23:08:03.910Z,22.6
2019-03-15T23:11:09.830Z,22.6
2019-03-15T23:14:18.278Z,22.6
2019-03-15T23:17:24.302Z,22.6
2019-03-15T23:20:30.362Z,22.6
2019-03-15T23:23:36.289Z,22.5
2019-03-15T23:26:42.222Z,22.5
2019-03-15T23:29:48.145Z,22.5
2019-03-15T23:32:54.101Z,22.5
2019-03-15T23:36:00.117Z,22.5
2019-03-15T23:39:06.205Z,22.5
2019-03-15T23:42:12.321Z,22.4
2019-03-15T23:45:18.551Z,22.4
2019-03-15T23:48:24.553Z,22.4
2019-03-15T23:51:30.481Z,22.4
2019-03-15T23:54:36.532Z,22.4
2019-03-15T23:57:42.582Z,22.4
